createdAt,value
2023-10-29T00:02:24.509Z,100.00
2023-10-29T00:04:51.370Z,100.00
2023-10-29T00:07:18.018Z,100.00
2023-10-29T00:09:44.680Z,100.00
2023-10-29T00:12:11.320Z,100.00
2023-10-29T00:14:37.960Z,100.00
2023-10-29T00:17:04.788Z,100.00
2023-10-29T00:19:33.216Z,100.00
2023-10-29T00:21:59.790Z,100.00
2023-10-29T00:24:26.378Z,99.91
2023-10-29T00:26:53.039Z,100.00
2023-10-29T00:29:19.897Z,100.00
2023-10-29T00:31:46.583Z,100.00
2023-10-29T00:34:13.155Z,100.00
2023-10-29T00:36:40.498Z,100.00
2023-10-29T00:39:08.725Z,100.00
2023-10-29T00:41:35.437Z,100.00
2023-10-29T00:44:02.154Z,100.00
2023-10-29T00:46:28.909Z,100.00
2023-10-29T00:48:55.597Z,100.00
2023-10-29T00:51:22.470Z,100.00
2023-10-29T00:53:49.430Z,100.00
2023-10-29T00:56:19.728Z,100.00
2023-10-29T00:58:47.536Z,100.00
2023-10-29T01:01:14.369Z,100.00
2023-10-29T01:03:44.685Z,100.00
2023-10-29T01:06:12.174Z,100.00
2023-10-29T01:08:39.474Z,100.00
2023-10-29T01:11:08.163Z,100.00
2023-10-29T01:13:34.873Z,100.00
2023-10-29T01:16:06.129Z,100.00
2023-10-29T01:18:33.255Z,100.00
2023-10-29T01:21:00.297Z,100.00
2023-10-29T01:23:29.684Z,100.00
2023-10-29T01:25:59.440Z,100.00
2023-10-29T01:28:26.603Z,100.00
2023-10-29T01:30:53.428Z,100.00
2023-10-29T01:33:20.131Z,100.00
2023-10-29T01:35:47.123Z,100.00
2023-10-29T01:38:13.815Z,100.00
2023-10-29T01:40:40.384Z,100.00
2023-10-29T01:43:07.001Z,100.00
2023-10-29T01:45:33.867Z,100.00
2023-10-29T01:48:00.908Z,100.00
2023-10-29T01:50:27.647Z,100.00
2023-10-29T01:52:55.139Z,100.00
2023-10-29T01:55:22.126Z,100.00
2023-10-29T01:57:48.779Z,100.00
2023-10-29T02:00:15.877Z,100.00
2023-10-29T02:02:42.768Z,100.00
2023-10-29T02:05:09.827Z,100.00
2023-10-29T02:07:36.452Z,100.00
2023-10-29T02:10:03.264Z,100.00
2023-10-29T02:12:29.849Z,100.00
2023-10-29T02:14:57.312Z,100.00
2023-10-29T02:17:26.294Z,100.00
2023-10-29T02:19:53.212Z,100.00
2023-10-29T02:22:19.811Z,100.00
2023-10-29T02:24:46.607Z,100.00
2023-10-29T02:27:13.498Z,100.00
2023-10-29T02:29:40.124Z,100.00
2023-10-29T02:32:07.779Z,100.00
2023-10-29T02:34:34.412Z,100.00
2023-10-29T02:37:01.034Z,100.00
2023-10-29T02:39:27.614Z,100.00
2023-10-29T02:41:54.299Z,100.00
2023-10-29T02:44:21.083Z,100.00
2023-10-29T02:46:47.677Z,100.00
2023-10-29T02:49:14.463Z,100.00
2023-10-29T02:51:41.232Z,100.00
2023-10-29T02:54:07.882Z,100.00
2023-10-29T02:56:39.471Z,100.00
2023-10-29T02:59:06.224Z,100.00
2023-10-29T03:01:33.186Z,100.00
2023-10-29T03:04:00.072Z,100.00
2023-10-29T03:06:26.758Z,100.00
2023-10-29T03:08:53.419Z,100.00
2023-10-29T03:11:20.157Z,100.00
2023-10-29T03:13:46.795Z,100.00
2023-10-29T03:16:13.381Z,100.00
2023-10-29T03:18:40.304Z,100.00
2023-10-29T03:21:06.848Z,100.00
2023-10-29T03:23:33.522Z,100.00
2023-10-29T03:26:03.784Z,100.00
2023-10-29T03:28:30.837Z,100.00
2023-10-29T03:30:58.004Z,100.00
2023-10-29T03:33:24.657Z,100.00
2023-10-29T03:35:51.666Z,100.00
2023-10-29T03:38:18.348Z,100.00
2023-10-29T03:40:45.182Z,100.00
2023-10-29T03:43:11.777Z,100.00
2023-10-29T03:45:38.433Z,100.00
2023-10-29T03:48:05.377Z,100.00
2023-10-29T03:50:32.044Z,100.00
2023-10-29T03:52:58.703Z,100.00
2023-10-29T03:55:25.398Z,100.00
2023-10-29T03:57:52.069Z,100.00
2023-10-29T04:00:18.781Z,100.00
2023-10-29T04:02:45.518Z,100.00
2023-10-29T04:05:12.466Z,100.00
2023-10-29T04:07:39.239Z,100.00
2023-10-29T04:10:08.650Z,100.00
2023-10-29T04:12:35.289Z,100.00
2023-10-29T04:15:02.336Z,100.00
2023-10-29T04:17:29.036Z,100.00
2023-10-29T04:19:55.912Z,100.00
2023-10-29T04:22:23.813Z,100.00
2023-10-29T04:24:51.560Z,100.00
2023-10-29T04:27:18.255Z,100.00
2023-10-29T04:29:44.938Z,100.00
2023-10-29T04:32:11.593Z,99.95
2023-10-29T04:34:38.185Z,100.00
2023-10-29T04:37:04.844Z,100.00
2023-10-29T04:39:31.401Z,100.00
2023-10-29T04:41:58.118Z,100.00
2023-10-29T04:44:24.758Z,100.00
2023-10-29T04:46:51.379Z,99.71
2023-10-29T04:49:17.980Z,99.88
2023-10-29T04:51:44.804Z,100.00
2023-10-29T04:54:12.981Z,99.97
2023-10-29T04:56:39.687Z,100.00
2023-10-29T04:59:06.382Z,99.92
2023-10-29T05:01:33.086Z,99.84
2023-10-29T05:03:59.826Z,99.66
2023-10-29T05:06:26.496Z,99.59
2023-10-29T05:08:53.175Z,99.88
2023-10-29T05:11:19.910Z,99.53
2023-10-29T05:13:46.533Z,99.81
2023-10-29T05:16:15.867Z,99.53
2023-10-29T05:18:42.945Z,99.53
2023-10-29T05:21:09.606Z,99.37
2023-10-29T05:23:36.259Z,99.64
2023-10-29T05:26:03.084Z,99.75
2023-10-29T05:28:29.729Z,99.62
2023-10-29T05:30:56.492Z,99.84
2023-10-29T05:33:23.245Z,99.43
2023-10-29T05:35:50.032Z,99.26
2023-10-29T05:38:16.652Z,99.88
2023-10-29T05:40:43.575Z,99.37
2023-10-29T05:43:11.098Z,99.37
2023-10-29T05:45:37.853Z,99.66
2023-10-29T05:48:04.728Z,99.24
2023-10-29T05:50:31.529Z,99.57
2023-10-29T05:52:58.223Z,99.05
2023-10-29T05:55:25.398Z,99.34
2023-10-29T05:57:53.182Z,99.11
2023-10-29T06:00:20.185Z,99.12
2023-10-29T06:02:46.936Z,99.12
2023-10-29T06:05:13.686Z,98.25
2023-10-29T06:07:44.907Z,98.88
2023-10-29T06:10:13.692Z,98.65
2023-10-29T06:12:41.222Z,98.53
2023-10-29T06:15:11.820Z,98.66
2023-10-29T06:17:39.667Z,98.66
2023-10-29T06:20:08.390Z,98.48
2023-10-29T06:22:35.234Z,98.38
2023-10-29T06:25:03.183Z,98.59
2023-10-29T06:27:29.938Z,98.08
2023-10-29T06:29:56.606Z,98.14
2023-10-29T06:32:23.292Z,98.10
2023-10-29T06:34:50.161Z,98.75
2023-10-29T06:37:17.106Z,97.79
2023-10-29T06:39:43.654Z,98.13
2023-10-29T06:42:10.274Z,98.42
2023-10-29T06:44:36.956Z,97.79
2023-10-29T06:47:04.538Z,97.83
2023-10-29T06:49:31.435Z,98.23
2023-10-29T06:51:58.209Z,97.75
2023-10-29T06:54:25.695Z,98.25
2023-10-29T06:56:52.522Z,97.99
2023-10-29T06:59:19.813Z,98.26
2023-10-29T07:01:48.294Z,98.03
2023-10-29T07:04:15.187Z,98.08
2023-10-29T07:06:43.797Z,97.97
2023-10-29T07:09:11.672Z,97.96
2023-10-29T07:11:38.420Z,97.87
2023-10-29T07:14:05.295Z,98.38
2023-10-29T07:16:32.124Z,97.89
2023-10-29T07:18:59.087Z,97.92
2023-10-29T07:21:26.846Z,98.01
2023-10-29T07:23:54.552Z,97.79
2023-10-29T07:26:21.306Z,97.70
2023-10-29T07:28:48.005Z,97.90
2023-10-29T07:31:19.479Z,98.40
2023-10-29T07:33:48.323Z,98.15
2023-10-29T07:36:14.998Z,98.10
2023-10-29T07:38:41.773Z,98.61
2023-10-29T07:41:08.429Z,98.78
2023-10-29T07:43:35.103Z,98.77
2023-10-29T07:46:05.429Z,98.48
2023-10-29T07:48:32.342Z,98.71
2023-10-29T07:51:00.822Z,98.53
2023-10-29T07:53:29.231Z,99.19
2023-10-29T07:55:55.897Z,99.16
2023-10-29T07:58:23.184Z,99.79
2023-10-29T08:00:50.035Z,99.48
2023-10-29T08:03:19.474Z,99.45
2023-10-29T08:05:52.742Z,100.00
2023-10-29T08:08:19.974Z,99.57
2023-10-29T08:10:46.933Z,99.91
2023-10-29T08:13:13.589Z,99.89
2023-10-29T08:15:42.327Z,100.00
2023-10-29T08:18:10.437Z,100.00
2023-10-29T08:20:37.230Z,99.92
2023-10-29T08:23:04.105Z,100.00
2023-10-29T08:25:30.667Z,100.00
2023-10-29T08:27:57.489Z,100.00
2023-10-29T08:30:24.216Z,100.00
2023-10-29T08:32:50.918Z,100.00
2023-10-29T08:35:17.681Z,100.00
2023-10-29T08:37:46.554Z,100.00
2023-10-29T08:40:14.180Z,100.00
2023-10-29T08:42:40.845Z,100.00
2023-10-29T08:45:07.909Z,100.00
2023-10-29T08:47:34.642Z,100.00
2023-10-29T08:50:01.349Z,100.00
2023-10-29T08:52:28.321Z,100.00
2023-10-29T08:54:55.369Z,100.00
2023-10-29T08:57:22.601Z,100.00
2023-10-29T08:59:49.510Z,100.00
2023-10-29T09:02:16.349Z,99.19
2023-10-29T09:04:43.026Z,98.72
2023-10-29T09:07:09.600Z,97.26
2023-10-29T09:09:38.702Z,96.00
2023-10-29T09:12:05.691Z,92.14
2023-10-29T09:14:32.412Z,91.87
2023-10-29T09:16:59.323Z,90.68
2023-10-29T09:19:26.675Z,89.34
2023-10-29T09:21:53.295Z,88.41
2023-10-29T09:24:19.911Z,88.63
2023-10-29T09:26:46.705Z,89.15
2023-10-29T09:29:13.322Z,86.67
2023-10-29T09:31:40.064Z,86.29
2023-10-29T09:34:06.706Z,87.14
2023-10-29T09:36:33.294Z,85.63
2023-10-29T09:39:00.135Z,87.01
2023-10-29T09:41:26.778Z,83.70
2023-10-29T09:43:54.784Z,85.09
2023-10-29T09:46:24.909Z,85.88
2023-10-29T09:48:54.642Z,85.46
2023-10-29T09:51:22.932Z,84.60
2023-10-29T09:53:52.872Z,83.05
2023-10-29T09:56:19.629Z,80.72
2023-10-29T09:58:46.595Z,81.14
2023-10-29T10:01:13.462Z,80.97
2023-10-29T10:03:40.388Z,79.38
2023-10-29T10:06:07.645Z,78.37
2023-10-29T10:08:34.548Z,77.78
2023-10-29T10:11:02.332Z,77.55
2023-10-29T10:13:42.152Z,77.89
2023-10-29T10:16:16.924Z,78.39
2023-10-29T10:18:52.986Z,78.66
2023-10-29T10:21:24.921Z,79.21
2023-10-29T10:23:54.683Z,78.83
2023-10-29T10:26:32.389Z,79.79
2023-10-29T10:29:00.366Z,79.72
2023-10-29T10:31:32.460Z,79.90
2023-10-29T10:34:19.150Z,80.61
2023-10-29T10:36:50.262Z,81.44
2023-10-29T10:39:23.282Z,81.68
2023-10-29T10:41:50.989Z,82.27
2023-10-29T10:44:21.997Z,82.10
2023-10-29T10:46:50.772Z,82.45
2023-10-29T10:49:18.889Z,82.32
2023-10-29T10:51:48.599Z,83.12
2023-10-29T10:54:20.453Z,83.39
2023-10-29T10:56:48.216Z,84.40
2023-10-29T10:59:15.564Z,84.00
2023-10-29T11:01:42.645Z,83.78
2023-10-29T11:04:11.096Z,84.43
2023-10-29T11:06:39.395Z,84.10
2023-10-29T11:09:13.443Z,84.46
2023-10-29T11:12:00.468Z,84.40
2023-10-29T11:14:27.390Z,84.54
2023-10-29T11:16:56.523Z,84.75
2023-10-29T11:19:48.436Z,84.90
2023-10-29T11:22:14.942Z,84.36
2023-10-29T11:24:41.761Z,84.16
2023-10-29T11:27:37.427Z,84.80
2023-10-29T11:30:24.581Z,84.96
2023-10-29T11:33:26.113Z,86.29
2023-10-29T11:36:34.134Z,86.00
2023-10-29T11:39:16.125Z,85.69
2023-10-29T11:41:45.812Z,85.59
2023-10-29T11:44:33.909Z,86.04
2023-10-29T11:47:02.041Z,85.79
2023-10-29T11:49:30.603Z,85.17
2023-10-29T11:52:02.775Z,85.08
2023-10-29T11:54:33.816Z,85.58
2023-10-29T11:57:01.261Z,85.87
2023-10-29T11:59:27.915Z,86.49
2023-10-29T12:01:54.605Z,86.55
2023-10-29T12:04:21.276Z,86.73
2023-10-29T12:06:49.851Z,86.28
2023-10-29T12:09:20.966Z,86.34
2023-10-29T12:11:50.433Z,86.06
2023-10-29T12:14:42.455Z,87.07
2023-10-29T12:17:10.847Z,86.77
2023-10-29T12:19:39.120Z,86.11
2023-10-29T12:22:21.302Z,86.55
2023-10-29T12:24:50.593Z,85.86
2023-10-29T12:27:18.188Z,85.39
2023-10-29T12:29:45.085Z,84.54
2023-10-29T12:32:23.638Z,83.70
2023-10-29T12:34:58.270Z,83.74
2023-10-29T12:37:29.383Z,83.03
2023-10-29T12:40:01.027Z,83.63
2023-10-29T12:43:00.297Z,83.93
2023-10-29T12:45:28.421Z,83.74
2023-10-29T12:48:15.810Z,84.87
2023-10-29T12:50:52.586Z,84.80
2023-10-29T12:53:30.384Z,85.35
2023-10-29T12:55:59.163Z,85.57
2023-10-29T12:58:27.426Z,87.14
2023-10-29T13:00:56.864Z,87.43
2023-10-29T13:03:25.197Z,87.58
2023-10-29T13:05:55.279Z,87.24
2023-10-29T13:08:23.517Z,87.47
2023-10-29T13:10:50.087Z,88.46
2023-10-29T13:13:16.765Z,89.33
2023-10-29T13:15:43.530Z,89.53
2023-10-29T13:18:13.422Z,90.46
2023-10-29T13:20:40.440Z,90.54
2023-10-29T13:23:07.023Z,91.67
2023-10-29T13:25:33.616Z,91.73
2023-10-29T13:28:01.087Z,91.43
2023-10-29T13:30:28.467Z,92.09
2023-10-29T13:32:56.067Z,92.17
2023-10-29T13:35:23.338Z,92.90
2023-10-29T13:37:49.931Z,93.57
2023-10-29T13:40:16.575Z,93.66
2023-10-29T13:42:43.270Z,93.72
2023-10-29T13:45:12.532Z,94.56
2023-10-29T13:47:39.136Z,94.07
2023-10-29T13:50:06.992Z,94.11
2023-10-29T13:52:33.591Z,94.64
2023-10-29T13:55:00.197Z,94.53
2023-10-29T13:57:26.802Z,95.23
2023-10-29T13:59:53.459Z,95.13
2023-10-29T14:02:23.311Z,95.23
2023-10-29T14:04:50.213Z,95.47
2023-10-29T14:07:17.137Z,96.15
2023-10-29T14:09:43.834Z,95.93
2023-10-29T14:12:10.411Z,95.95
2023-10-29T14:14:38.087Z,96.34
2023-10-29T14:17:06.892Z,97.69
2023-10-29T14:19:33.628Z,98.17
2023-10-29T14:22:00.274Z,98.77
2023-10-29T14:24:27.064Z,99.03
2023-10-29T14:26:56.754Z,98.95
2023-10-29T14:29:23.513Z,98.60
2023-10-29T14:31:50.169Z,98.44
2023-10-29T14:34:16.812Z,97.76
2023-10-29T14:36:43.374Z,96.71
2023-10-29T14:39:10.029Z,96.04
2023-10-29T14:41:36.753Z,96.11
2023-10-29T14:44:03.938Z,95.86
2023-10-29T14:46:30.684Z,95.75
2023-10-29T14:49:00.218Z,95.67
2023-10-29T14:51:26.789Z,95.45
2023-10-29T14:53:53.486Z,95.25
2023-10-29T14:56:22.242Z,94.67
2023-10-29T14:58:48.865Z,94.67
2023-10-29T15:01:15.492Z,94.71
2023-10-29T15:03:42.394Z,94.32
2023-10-29T15:06:12.541Z,94.74
2023-10-29T15:08:39.469Z,94.45
2023-10-29T15:11:06.655Z,93.97
2023-10-29T15:13:33.358Z,94.75
2023-10-29T15:16:13.227Z,95.04
2023-10-29T15:18:40.429Z,94.71
2023-10-29T15:21:11.483Z,94.17
2023-10-29T15:23:38.585Z,93.92
2023-10-29T15:26:12.855Z,93.95
2023-10-29T15:28:39.561Z,94.10
2023-10-29T15:31:10.099Z,93.70
2023-10-29T15:33:37.092Z,94.31
2023-10-29T15:36:08.808Z,94.78
2023-10-29T15:38:36.405Z,94.12
2023-10-29T15:41:03.908Z,94.92
2023-10-29T15:43:30.685Z,95.09
2023-10-29T15:45:58.112Z,94.98
2023-10-29T15:48:25.221Z,94.49
2023-10-29T15:50:53.318Z,95.17
2023-10-29T15:53:21.260Z,95.27
2023-10-29T15:55:48.616Z,94.80
2023-10-29T15:58:19.437Z,94.82
2023-10-29T16:00:50.302Z,95.80
2023-10-29T16:03:19.948Z,95.83
2023-10-29T16:05:46.772Z,95.14
2023-10-29T16:08:13.370Z,95.35
2023-10-29T16:10:40.111Z,95.40
2023-10-29T16:13:06.772Z,95.06
2023-10-29T16:15:33.508Z,95.10
2023-10-29T16:18:00.442Z,95.31
2023-10-29T16:20:27.267Z,95.51
2023-10-29T16:22:53.952Z,95.17
2023-10-29T16:25:20.979Z,94.85
2023-10-29T16:27:47.525Z,95.61
2023-10-29T16:30:14.178Z,94.75
2023-10-29T16:32:40.862Z,94.98
2023-10-29T16:35:08.362Z,94.96
2023-10-29T16:37:34.917Z,95.07
2023-10-29T16:40:01.863Z,95.50
2023-10-29T16:42:28.536Z,95.25
2023-10-29T16:44:55.279Z,95.18
2023-10-29T16:47:22.009Z,95.05
2023-10-29T16:49:51.018Z,95.79
2023-10-29T16:52:17.968Z,95.49
2023-10-29T16:54:46.563Z,95.83
2023-10-29T16:57:13.808Z,95.45
2023-10-29T16:59:41.305Z,95.78
2023-10-29T17:02:08.209Z,96.15
2023-10-29T17:04:35.537Z,95.43
2023-10-29T17:07:04.004Z,95.67
2023-10-29T17:09:31.464Z,95.58
2023-10-29T17:11:58.294Z,95.99
2023-10-29T17:14:25.049Z,95.95
2023-10-29T17:16:51.679Z,96.33
2023-10-29T17:19:18.350Z,95.87
2023-10-29T17:21:45.098Z,95.80
2023-10-29T17:24:11.847Z,95.60
2023-10-29T17:26:38.506Z,95.62
2023-10-29T17:29:05.248Z,95.59
2023-10-29T17:31:32.670Z,95.74
2023-10-29T17:33:59.710Z,95.77
2023-10-29T17:36:26.349Z,96.21
2023-10-29T17:38:54.051Z,96.15
2023-10-29T17:41:22.956Z,96.83
2023-10-29T17:43:52.848Z,96.94
2023-10-29T17:46:21.763Z,95.90
2023-10-29T17:48:50.019Z,96.50
2023-10-29T17:51:16.830Z,96.50
2023-10-29T17:53:47.629Z,96.97
2023-10-29T17:56:15.112Z,97.25
2023-10-29T17:58:42.019Z,97.45
2023-10-29T18:01:08.919Z,97.81
2023-10-29T18:03:35.636Z,97.61
2023-10-29T18:06:15.612Z,98.18
2023-10-29T18:08:43.382Z,98.28
2023-10-29T18:11:12.563Z,98.82
2023-10-29T18:13:39.905Z,98.65
2023-10-29T18:16:09.289Z,98.96
2023-10-29T18:18:36.962Z,99.50
2023-10-29T18:21:04.064Z,99.47
2023-10-29T18:23:30.902Z,99.33
2023-10-29T18:25:58.943Z,99.41
2023-10-29T18:28:25.688Z,99.79
2023-10-29T18:30:52.486Z,99.74
2023-10-29T18:33:19.370Z,100.00
2023-10-29T18:35:46.808Z,99.38
2023-10-29T18:38:13.957Z,99.94
2023-10-29T18:40:41.488Z,99.62
2023-10-29T18:43:08.159Z,99.74
2023-10-29T18:45:40.287Z,99.93
2023-10-29T18:48:07.077Z,99.83
2023-10-29T18:50:34.691Z,99.95
2023-10-29T18:53:01.556Z,99.57
2023-10-29T18:55:28.112Z,99.72
2023-10-29T18:57:54.767Z,99.65
2023-10-29T19:00:21.463Z,99.57
2023-10-29T19:02:48.240Z,99.59
2023-10-29T19:05:15.495Z,99.17
2023-10-29T19:07:42.541Z,99.41
2023-10-29T19:10:09.718Z,99.28
2023-10-29T19:12:36.475Z,98.75
2023-10-29T19:15:04.471Z,99.14
2023-10-29T19:17:31.179Z,99.83
2023-10-29T19:19:57.747Z,99.17
2023-10-29T19:22:24.460Z,99.94
2023-10-29T19:24:51.092Z,99.67
2023-10-29T19:27:18.114Z,99.36
2023-10-29T19:29:44.826Z,99.96
2023-10-29T19:32:11.558Z,98.63
2023-10-29T19:34:38.351Z,99.74
2023-10-29T19:37:04.979Z,98.75
2023-10-29T19:39:32.065Z,99.15
2023-10-29T19:41:58.764Z,98.97
2023-10-29T19:44:25.314Z,98.80
2023-10-29T19:46:51.909Z,98.71
2023-10-29T19:49:18.534Z,98.56
2023-10-29T19:51:45.162Z,98.88
2023-10-29T19:54:11.858Z,98.12
2023-10-29T19:56:38.532Z,98.31
2023-10-29T19:59:05.186Z,98.42
2023-10-29T20:01:31.837Z,98.55
2023-10-29T20:04:00.134Z,98.14
2023-10-29T20:06:27.076Z,97.64
2023-10-29T20:08:53.969Z,97.65
2023-10-29T20:11:20.673Z,98.35
2023-10-29T20:13:49.009Z,97.73
2023-10-29T20:16:15.938Z,97.78
2023-10-29T20:18:42.760Z,97.59
2023-10-29T20:21:17.772Z,97.57
2023-10-29T20:23:45.540Z,97.46
2023-10-29T20:26:16.202Z,96.83
2023-10-29T20:28:43.061Z,97.35
2023-10-29T20:31:09.806Z,96.72
2023-10-29T20:33:36.481Z,96.56
2023-10-29T20:36:04.132Z,96.72
2023-10-29T20:38:30.945Z,96.56
2023-10-29T20:40:57.597Z,96.51
2023-10-29T20:43:24.470Z,96.37
2023-10-29T20:45:52.650Z,96.18
2023-10-29T20:48:19.456Z,96.56
2023-10-29T20:50:52.942Z,96.22
2023-10-29T20:53:20.184Z,95.87
2023-10-29T20:55:47.376Z,95.70
2023-10-29T20:58:14.798Z,95.70
2023-10-29T21:00:42.037Z,95.57
2023-10-29T21:03:08.953Z,95.38
2023-10-29T21:05:35.769Z,95.12
2023-10-29T21:08:02.350Z,95.53
2023-10-29T21:10:30.309Z,95.69
2023-10-29T21:12:57.170Z,95.06
2023-10-29T21:15:24.949Z,95.25
2023-10-29T21:17:51.925Z,95.38
2023-10-29T21:20:19.209Z,94.91
2023-10-29T21:22:46.062Z,95.27
2023-10-29T21:25:12.696Z,95.05
2023-10-29T21:27:39.468Z,95.28
2023-10-29T21:30:08.092Z,94.86
2023-10-29T21:32:34.882Z,95.46
2023-10-29T21:35:01.679Z,95.28
2023-10-29T21:37:28.260Z,95.51
2023-10-29T21:39:54.854Z,95.09
2023-10-29T21:42:22.746Z,95.07
2023-10-29T21:44:52.351Z,95.27
2023-10-29T21:47:19.051Z,94.71
2023-10-29T21:49:51.675Z,94.74
2023-10-29T21:52:18.299Z,94.49
2023-10-29T21:54:50.825Z,95.31
2023-10-29T21:57:18.383Z,95.49
2023-10-29T21:59:45.250Z,95.40
2023-10-29T22:02:11.928Z,95.18
2023-10-29T22:04:39.042Z,94.87
2023-10-29T22:07:06.226Z,95.40
2023-10-29T22:09:33.044Z,95.46
2023-10-29T22:11:59.940Z,94.58
2023-10-29T22:14:26.765Z,95.06
2023-10-29T22:16:53.742Z,94.47
2023-10-29T22:19:20.431Z,94.90
2023-10-29T22:21:47.085Z,95.21
2023-10-29T22:24:13.745Z,95.09
2023-10-29T22:26:40.402Z,94.79
2023-10-29T22:29:07.252Z,95.12
2023-10-29T22:31:34.024Z,95.10
2023-10-29T22:34:00.641Z,94.69
2023-10-29T22:36:27.490Z,95.06
2023-10-29T22:38:54.142Z,94.67
2023-10-29T22:41:20.820Z,94.51
2023-10-29T22:43:47.514Z,94.84
2023-10-29T22:46:22.689Z,95.14
2023-10-29T22:48:51.488Z,95.16
2023-10-29T22:51:19.425Z,94.43
2023-10-29T22:53:46.869Z,94.89
2023-10-29T22:56:14.117Z,94.92
2023-10-29T22:58:40.800Z,94.86
2023-10-29T23:01:09.926Z,94.99
2023-10-29T23:03:36.867Z,95.34
2023-10-29T23:06:04.477Z,95.14
2023-10-29T23:08:31.559Z,95.54
2023-10-29T23:10:58.477Z,94.94
2023-10-29T23:13:26.141Z,95.20
2023-10-29T23:15:54.352Z,95.07
2023-10-29T23:18:21.164Z,95.00
2023-10-29T23:20:47.801Z,95.39
2023-10-29T23:23:16.993Z,95.72
2023-10-29T23:25:44.954Z,95.59
2023-10-29T23:28:19.522Z,95.46
2023-10-29T23:30:53.776Z,96.01
2023-10-29T23:33:20.568Z,96.09
2023-10-29T23:35:47.302Z,96.29
2023-10-29T23:38:13.857Z,96.23
2023-10-29T23:40:41.136Z,95.98
2023-10-29T23:43:07.990Z,96.58
2023-10-29T23:45:34.689Z,96.59
2023-10-29T23:48:02.325Z,96.24
2023-10-29T23:50:29.102Z,96.10
2023-10-29T23:52:55.661Z,96.09
2023-10-29T23:55:22.236Z,96.06
2023-10-29T23:57:48.799Z,96.03
